sensor_id;sensor_type;location;lat;lon;timestamp;P1;durP1;ratioP1;P2;durP2;ratioP2
30970;SDS011;17651;52.262;10.498;2024-03-08T00:00:32;32.08;;;17.60;;
30970;SDS011;17651;52.262;10.498;2024-03-08T00:02:46;32.53;;;18.83;;
30970;SDS011;17651;52.262;10.498;2024-03-08T00:04:58;35.22;;;18.85;;
30970;SDS011;17651;52.262;10.498;2024-03-08T00:07:09;31.85;;;18.60;;
30970;SDS011;17651;52.262;10.498;2024-03-08T00:09:20;30.58;;;17.38;;
30970;SDS011;17651;52.262;10.498;2024-03-08T00:11:31;30.58;;;17.27;;
30970;SDS011;17651;52.262;10.498;2024-03-08T00:13:42;32.22;;;17.80;;
30970;SDS011;17651;52.262;10.498;2024-03-08T00:15:55;31.35;;;18.25;;
30970;SDS011;17651;52.262;10.498;2024-03-08T00:18:07;33.00;;;17.25;;
30970;SDS011;17651;52.262;10.498;2024-03-08T00:20:19;32.63;;;17.90;;
30970;SDS011;17651;52.262;10.498;2024-03-08T00:22:30;31.38;;;17.70;;
30970;SDS011;17651;52.262;10.498;2024-03-08T00:24:41;33.92;;;17.90;;
30970;SDS011;17651;52.262;10.498;2024-03-08T00:26:52;33.78;;;17.85;;
30970;SDS011;17651;52.262;10.498;2024-03-08T00:29:04;33.00;;;18.65;;
30970;SDS011;17651;52.262;10.498;2024-03-08T00:31:17;33.17;;;18.85;;
30970;SDS011;17651;52.262;10.498;2024-03-08T00:33:28;28.60;;;16.95;;
30970;SDS011;17651;52.262;10.498;2024-03-08T00:35:40;34.42;;;17.20;;
30970;SDS011;17651;52.262;10.498;2024-03-08T00:37:51;32.97;;;17.50;;
30970;SDS011;17651;52.262;10.498;2024-03-08T00:40:02;36.28;;;19.67;;
30970;SDS011;17651;52.262;10.498;2024-03-08T00:42:13;38.95;;;19.17;;
30970;SDS011;17651;52.262;10.498;2024-03-08T00:44:24;32.75;;;18.77;;
30970;SDS011;17651;52.262;10.498;2024-03-08T00:46:35;32.58;;;18.83;;
30970;SDS011;17651;52.262;10.498;2024-03-08T00:48:46;35.95;;;19.27;;
30970;SDS011;17651;52.262;10.498;2024-03-08T00:50:57;33.95;;;18.90;;
30970;SDS011;17651;52.262;10.498;2024-03-08T00:53:08;41.47;;;20.23;;
30970;SDS011;17651;52.262;10.498;2024-03-08T00:55:21;32.33;;;17.98;;
30970;SDS011;17651;52.262;10.498;2024-03-08T00:57:32;34.72;;;18.90;;
30970;SDS011;17651;52.262;10.498;2024-03-08T00:59:43;33.30;;;19.13;;
30970;SDS011;17651;52.262;10.498;2024-03-08T01:01:54;35.25;;;19.40;;
30970;SDS011;17651;52.262;10.498;2024-03-08T01:04:06;33.75;;;18.92;;
30970;SDS011;17651;52.262;10.498;2024-03-08T01:06:18;34.88;;;19.80;;
30970;SDS011;17651;52.262;10.498;2024-03-08T01:08:29;34.90;;;19.08;;
30970;SDS011;17651;52.262;10.498;2024-03-08T01:10:40;34.42;;;18.90;;
30970;SDS011;17651;52.262;10.498;2024-03-08T01:12:51;35.03;;;18.27;;
30970;SDS011;17651;52.262;10.498;2024-03-08T01:15:04;33.75;;;19.00;;
30970;SDS011;17651;52.262;10.498;2024-03-08T01:17:16;33.50;;;18.70;;
30970;SDS011;17651;52.262;10.498;2024-03-08T01:19:27;33.75;;;17.88;;
30970;SDS011;17651;52.262;10.498;2024-03-08T01:21:38;35.25;;;19.10;;
30970;SDS011;17651;52.262;10.498;2024-03-08T01:23:49;35.97;;;18.60;;
30970;SDS011;17651;52.262;10.498;2024-03-08T01:26:00;32.33;;;17.58;;
30970;SDS011;17651;52.262;10.498;2024-03-08T01:28:12;35.88;;;19.90;;
30970;SDS011;17651;52.262;10.498;2024-03-08T01:30:23;35.05;;;19.85;;
30970;SDS011;17651;52.262;10.498;2024-03-08T01:32:34;35.22;;;18.90;;
30970;SDS011;17651;52.262;10.498;2024-03-08T01:34:45;31.15;;;19.10;;
30970;SDS011;17651;52.262;10.498;2024-03-08T01:36:56;35.53;;;19.20;;
30970;SDS011;17651;52.262;10.498;2024-03-08T01:39:07;36.05;;;19.65;;
30970;SDS011;17651;52.262;10.498;2024-03-08T01:41:19;33.47;;;18.50;;
30970;SDS011;17651;52.262;10.498;2024-03-08T01:43:30;35.85;;;20.60;;
30970;SDS011;17651;52.262;10.498;2024-03-08T01:45:42;45.22;;;19.98;;
30970;SDS011;17651;52.262;10.498;2024-03-08T01:47:53;33.85;;;18.10;;
30970;SDS011;17651;52.262;10.498;2024-03-08T01:50:04;34.28;;;19.52;;
30970;SDS011;17651;52.262;10.498;2024-03-08T01:52:16;35.35;;;18.85;;
30970;SDS011;17651;52.262;10.498;2024-03-08T01:54:30;31.40;;;18.88;;
30970;SDS011;17651;52.262;10.498;2024-03-08T01:56:42;32.35;;;18.58;;
30970;SDS011;17651;52.262;10.498;2024-03-08T01:58:53;30.38;;;17.95;;
30970;SDS011;17651;52.262;10.498;2024-03-08T02:01:05;32.55;;;19.50;;
30970;SDS011;17651;52.262;10.498;2024-03-08T02:03:16;34.85;;;18.63;;
30970;SDS011;17651;52.262;10.498;2024-03-08T02:05:27;33.92;;;19.10;;
30970;SDS011;17651;52.262;10.498;2024-03-08T02:07:40;42.20;;;19.25;;
30970;SDS011;17651;52.262;10.498;2024-03-08T02:09:54;36.25;;;19.30;;
30970;SDS011;17651;52.262;10.498;2024-03-08T02:12:05;33.28;;;18.05;;
30970;SDS011;17651;52.262;10.498;2024-03-08T02:14:20;31.83;;;18.02;;
30970;SDS011;17651;52.262;10.498;2024-03-08T02:16:31;33.00;;;19.60;;
30970;SDS011;17651;52.262;10.498;2024-03-08T02:18:43;32.55;;;17.90;;
30970;SDS011;17651;52.262;10.498;2024-03-08T02:20:55;36.97;;;19.60;;
30970;SDS011;17651;52.262;10.498;2024-03-08T02:23:06;33.10;;;18.65;;
30970;SDS011;17651;52.262;10.498;2024-03-08T02:25:18;32.30;;;18.05;;
30970;SDS011;17651;52.262;10.498;2024-03-08T02:27:29;37.28;;;19.17;;
30970;SDS011;17651;52.262;10.498;2024-03-08T02:29:41;34.08;;;19.40;;
30970;SDS011;17651;52.262;10.498;2024-03-08T02:31:54;36.13;;;19.05;;
30970;SDS011;17651;52.262;10.498;2024-03-08T02:34:07;36.05;;;19.00;;
30970;SDS011;17651;52.262;10.498;2024-03-08T02:36:19;37.00;;;19.23;;
30970;SDS011;17651;52.262;10.498;2024-03-08T02:38:31;30.75;;;17.88;;
30970;SDS011;17651;52.262;10.498;2024-03-08T02:40:43;33.28;;;18.52;;
30970;SDS011;17651;52.262;10.498;2024-03-08T02:42:54;33.35;;;19.98;;
30970;SDS011;17651;52.262;10.498;2024-03-08T02:45:05;37.85;;;19.92;;
30970;SDS011;17651;52.262;10.498;2024-03-08T02:47:18;32.30;;;18.50;;
30970;SDS011;17651;52.262;10.498;2024-03-08T02:49:29;35.60;;;19.67;;
30970;SDS011;17651;52.262;10.498;2024-03-08T02:51:40;37.42;;;19.45;;
30970;SDS011;17651;52.262;10.498;2024-03-08T02:53:52;35.10;;;19.70;;
30970;SDS011;17651;52.262;10.498;2024-03-08T02:56:03;35.92;;;18.75;;
30970;SDS011;17651;52.262;10.498;2024-03-08T02:58:14;33.25;;;19.58;;
30970;SDS011;17651;52.262;10.498;2024-03-08T03:00:25;36.03;;;19.88;;
30970;SDS011;17651;52.262;10.498;2024-03-08T03:02:37;36.65;;;20.30;;
30970;SDS011;17651;52.262;10.498;2024-03-08T03:04:48;40.20;;;21.00;;
30970;SDS011;17651;52.262;10.498;2024-03-08T03:06:59;36.33;;;20.00;;
30970;SDS011;17651;52.262;10.498;2024-03-08T03:09:10;33.95;;;18.75;;
30970;SDS011;17651;52.262;10.498;2024-03-08T03:11:21;38.90;;;19.45;;
30970;SDS011;17651;52.262;10.498;2024-03-08T03:13:32;32.35;;;19.25;;
30970;SDS011;17651;52.262;10.498;2024-03-08T03:15:43;34.47;;;19.85;;
30970;SDS011;17651;52.262;10.498;2024-03-08T03:17:54;32.00;;;19.02;;
30970;SDS011;17651;52.262;10.498;2024-03-08T03:20:06;39.97;;;21.00;;
30970;SDS011;17651;52.262;10.498;2024-03-08T03:22:22;31.67;;;18.80;;
30970;SDS011;17651;52.262;10.498;2024-03-08T03:24:35;36.13;;;20.98;;
30970;SDS011;17651;52.262;10.498;2024-03-08T03:26:48;34.50;;;19.75;;
30970;SDS011;17651;52.262;10.498;2024-03-08T03:28:59;36.78;;;18.80;;
30970;SDS011;17651;52.262;10.498;2024-03-08T03:31:13;32.53;;;18.95;;
30970;SDS011;17651;52.262;10.498;2024-03-08T03:33:24;40.30;;;21.17;;
30970;SDS011;17651;52.262;10.498;2024-03-08T03:35:35;35.85;;;20.02;;
30970;SDS011;17651;52.262;10.498;2024-03-08T03:37:47;33.20;;;19.38;;
30970;SDS011;17651;52.262;10.498;2024-03-08T03:40:12;36.17;;;18.23;;
30970;SDS011;17651;52.262;10.498;2024-03-08T03:42:23;33.50;;;19.63;;
30970;SDS011;17651;52.262;10.498;2024-03-08T03:44:36;32.45;;;19.30;;
30970;SDS011;17651;52.262;10.498;2024-03-08T03:46:47;36.13;;;20.48;;
30970;SDS011;17651;52.262;10.498;2024-03-08T03:48:58;40.85;;;20.55;;
30970;SDS011;17651;52.262;10.498;2024-03-08T03:51:09;38.70;;;20.70;;
30970;SDS011;17651;52.262;10.498;2024-03-08T03:53:20;34.13;;;19.05;;
30970;SDS011;17651;52.262;10.498;2024-03-08T03:55:31;36.70;;;19.05;;
30970;SDS011;17651;52.262;10.498;2024-03-08T03:57:43;35.70;;;20.83;;
30970;SDS011;17651;52.262;10.498;2024-03-08T03:59:55;36.38;;;20.63;;
30970;SDS011;17651;52.262;10.498;2024-03-08T04:02:08;31.98;;;19.08;;
30970;SDS011;17651;52.262;10.498;2024-03-08T04:04:20;35.22;;;18.85;;
30970;SDS011;17651;52.262;10.498;2024-03-08T04:06:31;35.55;;;19.70;;
30970;SDS011;17651;52.262;10.498;2024-03-08T04:08:42;36.83;;;20.45;;
30970;SDS011;17651;52.262;10.498;2024-03-08T04:10:53;35.85;;;19.95;;
30970;SDS011;17651;52.262;10.498;2024-03-08T04:13:04;31.85;;;18.77;;
30970;SDS011;17651;52.262;10.498;2024-03-08T04:15:26;38.03;;;21.17;;
30970;SDS011;17651;52.262;10.498;2024-03-08T04:17:37;35.90;;;20.42;;
30970;SDS011;17651;52.262;10.498;2024-03-08T04:19:48;35.15;;;20.48;;
30970;SDS011;17651;52.262;10.498;2024-03-08T04:22:00;36.67;;;21.05;;
30970;SDS011;17651;52.262;10.498;2024-03-08T04:24:12;37.00;;;19.77;;
30970;SDS011;17651;52.262;10.498;2024-03-08T04:26:23;37.60;;;19.70;;
30970;SDS011;17651;52.262;10.498;2024-03-08T04:28:36;36.75;;;18.88;;
30970;SDS011;17651;52.262;10.498;2024-03-08T04:30:47;37.13;;;20.08;;
30970;SDS011;17651;52.262;10.498;2024-03-08T04:32:59;38.60;;;20.77;;
30970;SDS011;17651;52.262;10.498;2024-03-08T04:35:10;36.13;;;19.70;;
30970;SDS011;17651;52.262;10.498;2024-03-08T04:37:22;36.85;;;20.55;;
30970;SDS011;17651;52.262;10.498;2024-03-08T04:39:33;37.58;;;20.77;;
30970;SDS011;17651;52.262;10.498;2024-03-08T04:41:45;38.17;;;20.70;;
30970;SDS011;17651;52.262;10.498;2024-03-08T04:43:56;37.30;;;20.63;;
30970;SDS011;17651;52.262;10.498;2024-03-08T04:46:08;32.17;;;19.33;;
30970;SDS011;17651;52.262;10.498;2024-03-08T04:48:19;39.08;;;22.17;;
30970;SDS011;17651;52.262;10.498;2024-03-08T04:50:30;38.00;;;20.77;;
30970;SDS011;17651;52.262;10.498;2024-03-08T04:52:41;40.13;;;22.70;;
30970;SDS011;17651;52.262;10.498;2024-03-08T04:54:53;34.90;;;21.23;;
30970;SDS011;17651;52.262;10.498;2024-03-08T04:57:04;42.33;;;21.02;;
30970;SDS011;17651;52.262;10.498;2024-03-08T04:59:15;33.08;;;20.17;;
30970;SDS011;17651;52.262;10.498;2024-03-08T05:01:26;37.38;;;20.85;;
30970;SDS011;17651;52.262;10.498;2024-03-08T05:03:37;36.10;;;21.30;;
30970;SDS011;17651;52.262;10.498;2024-03-08T05:05:48;38.80;;;20.77;;
30970;SDS011;17651;52.262;10.498;2024-03-08T05:07:59;37.42;;;20.67;;
30970;SDS011;17651;52.262;10.498;2024-03-08T05:10:11;37.40;;;19.92;;
30970;SDS011;17651;52.262;10.498;2024-03-08T05:12:24;33.83;;;20.42;;
30970;SDS011;17651;52.262;10.498;2024-03-08T05:14:35;35.15;;;21.33;;
30970;SDS011;17651;52.262;10.498;2024-03-08T05:16:46;38.58;;;21.42;;
30970;SDS011;17651;52.262;10.498;2024-03-08T05:19:00;37.60;;;21.27;;
30970;SDS011;17651;52.262;10.498;2024-03-08T05:21:11;39.38;;;22.10;;
30970;SDS011;17651;52.262;10.498;2024-03-08T05:23:23;39.05;;;21.50;;
30970;SDS011;17651;52.262;10.498;2024-03-08T05:25:34;38.83;;;22.00;;
30970;SDS011;17651;52.262;10.498;2024-03-08T05:27:46;38.53;;;20.85;;
30970;SDS011;17651;52.262;10.498;2024-03-08T05:29:57;37.38;;;20.17;;
30970;SDS011;17651;52.262;10.498;2024-03-08T05:32:08;36.35;;;20.45;;
30970;SDS011;17651;52.262;10.498;2024-03-08T05:34:20;37.47;;;21.13;;
30970;SDS011;17651;52.262;10.498;2024-03-08T05:36:31;41.58;;;22.67;;
30970;SDS011;17651;52.262;10.498;2024-03-08T05:38:43;38.03;;;21.60;;
30970;SDS011;17651;52.262;10.498;2024-03-08T05:40:54;46.10;;;22.92;;
30970;SDS011;17651;52.262;10.498;2024-03-08T05:43:06;44.45;;;23.25;;
30970;SDS011;17651;52.262;10.498;2024-03-08T05:45:17;37.15;;;21.13;;
30970;SDS011;17651;52.262;10.498;2024-03-08T05:47:28;41.45;;;22.80;;
30970;SDS011;17651;52.262;10.498;2024-03-08T05:49:39;38.42;;;22.08;;
30970;SDS011;17651;52.262;10.498;2024-03-08T05:51:50;39.90;;;23.17;;
30970;SDS011;17651;52.262;10.498;2024-03-08T05:54:05;44.53;;;23.95;;
30970;SDS011;17651;52.262;10.498;2024-03-08T05:56:16;38.30;;;22.20;;
30970;SDS011;17651;52.262;10.498;2024-03-08T05:58:27;41.05;;;24.25;;
30970;SDS011;17651;52.262;10.498;2024-03-08T06:00:40;42.38;;;22.83;;
30970;SDS011;17651;52.262;10.498;2024-03-08T06:02:51;39.40;;;22.45;;
30970;SDS011;17651;52.262;10.498;2024-03-08T06:05:02;41.45;;;22.58;;
30970;SDS011;17651;52.262;10.498;2024-03-08T06:07:13;41.35;;;23.35;;
30970;SDS011;17651;52.262;10.498;2024-03-08T06:09:24;41.58;;;22.90;;
30970;SDS011;17651;52.262;10.498;2024-03-08T06:11:36;45.20;;;25.52;;
30970;SDS011;17651;52.262;10.498;2024-03-08T06:13:47;46.70;;;22.92;;
30970;SDS011;17651;52.262;10.498;2024-03-08T06:16:00;44.42;;;25.10;;
30970;SDS011;17651;52.262;10.498;2024-03-08T06:18:14;37.97;;;21.73;;
30970;SDS011;17651;52.262;10.498;2024-03-08T06:20:25;40.20;;;22.92;;
30970;SDS011;17651;52.262;10.498;2024-03-08T06:22:39;39.80;;;22.05;;
30970;SDS011;17651;52.262;10.498;2024-03-08T06:24:51;38.15;;;23.02;;
30970;SDS011;17651;52.262;10.498;2024-03-08T06:27:04;37.88;;;21.80;;
30970;SDS011;17651;52.262;10.498;2024-03-08T06:29:15;35.45;;;20.35;;
30970;SDS011;17651;52.262;10.498;2024-03-08T06:31:26;35.78;;;21.08;;
30970;SDS011;17651;52.262;10.498;2024-03-08T06:33:37;40.47;;;21.60;;
30970;SDS011;17651;52.262;10.498;2024-03-08T06:35:48;34.40;;;20.75;;
30970;SDS011;17651;52.262;10.498;2024-03-08T06:37:59;35.67;;;20.73;;
30970;SDS011;17651;52.262;10.498;2024-03-08T06:40:11;37.97;;;21.42;;
30970;SDS011;17651;52.262;10.498;2024-03-08T06:42:23;32.20;;;21.25;;
30970;SDS011;17651;52.262;10.498;2024-03-08T06:44:34;36.10;;;20.90;;
30970;SDS011;17651;52.262;10.498;2024-03-08T06:46:46;33.42;;;19.67;;
30970;SDS011;17651;52.262;10.498;2024-03-08T06:48:58;38.50;;;21.27;;
30970;SDS011;17651;52.262;10.498;2024-03-08T06:51:09;36.30;;;20.58;;
30970;SDS011;17651;52.262;10.498;2024-03-08T06:53:21;39.40;;;21.80;;
30970;SDS011;17651;52.262;10.498;2024-03-08T06:55:32;36.40;;;22.05;;
30970;SDS011;17651;52.262;10.498;2024-03-08T06:57:44;40.35;;;22.00;;
30970;SDS011;17651;52.262;10.498;2024-03-08T06:59:55;36.92;;;21.67;;
30970;SDS011;17651;52.262;10.498;2024-03-08T07:02:07;38.80;;;22.90;;
30970;SDS011;17651;52.262;10.498;2024-03-08T07:04:21;39.25;;;20.95;;
30970;SDS011;17651;52.262;10.498;2024-03-08T07:06:36;37.05;;;21.90;;
30970;SDS011;17651;52.262;10.498;2024-03-08T07:08:47;36.60;;;20.92;;
30970;SDS011;17651;52.262;10.498;2024-03-08T07:10:59;39.60;;;20.90;;
30970;SDS011;17651;52.262;10.498;2024-03-08T07:13:11;44.58;;;23.98;;
30970;SDS011;17651;52.262;10.498;2024-03-08T07:15:22;40.35;;;22.45;;
30970;SDS011;17651;52.262;10.498;2024-03-08T07:17:33;39.28;;;22.98;;
30970;SDS011;17651;52.262;10.498;2024-03-08T07:19:45;37.70;;;22.17;;
30970;SDS011;17651;52.262;10.498;2024-03-08T07:21:56;39.03;;;22.73;;
30970;SDS011;17651;52.262;10.498;2024-03-08T07:24:07;40.10;;;24.00;;
30970;SDS011;17651;52.262;10.498;2024-03-08T07:26:39;42.58;;;23.08;;
30970;SDS011;17651;52.262;10.498;2024-03-08T07:28:50;41.60;;;24.50;;
30970;SDS011;17651;52.262;10.498;2024-03-08T07:31:01;42.28;;;23.95;;
30970;SDS011;17651;52.262;10.498;2024-03-08T07:33:31;41.28;;;23.73;;
30970;SDS011;17651;52.262;10.498;2024-03-08T07:35:42;41.20;;;23.92;;
30970;SDS011;17651;52.262;10.498;2024-03-08T07:37:55;38.13;;;22.30;;
30970;SDS011;17651;52.262;10.498;2024-03-08T07:40:06;41.95;;;24.20;;
30970;SDS011;17651;52.262;10.498;2024-03-08T07:42:17;43.15;;;24.50;;
30970;SDS011;17651;52.262;10.498;2024-03-08T07:44:29;41.58;;;22.88;;
30970;SDS011;17651;52.262;10.498;2024-03-08T07:46:41;40.40;;;22.35;;
30970;SDS011;17651;52.262;10.498;2024-03-08T07:48:52;40.63;;;23.10;;
30970;SDS011;17651;52.262;10.498;2024-03-08T07:51:03;47.35;;;23.42;;
30970;SDS011;17651;52.262;10.498;2024-03-08T07:53:15;40.65;;;23.95;;
30970;SDS011;17651;52.262;10.498;2024-03-08T07:55:26;49.45;;;26.75;;
30970;SDS011;17651;52.262;10.498;2024-03-08T07:57:38;40.30;;;23.63;;
30970;SDS011;17651;52.262;10.498;2024-03-08T07:59:50;42.20;;;23.35;;
30970;SDS011;17651;52.262;10.498;2024-03-08T08:02:01;43.03;;;24.42;;
30970;SDS011;17651;52.262;10.498;2024-03-08T08:04:12;41.97;;;25.15;;
30970;SDS011;17651;52.262;10.498;2024-03-08T08:06:24;37.28;;;21.77;;
30970;SDS011;17651;52.262;10.498;2024-03-08T08:08:35;42.25;;;24.10;;
30970;SDS011;17651;52.262;10.498;2024-03-08T08:10:47;42.63;;;24.05;;
30970;SDS011;17651;52.262;10.498;2024-03-08T08:12:58;40.03;;;23.95;;
30970;SDS011;17651;52.262;10.498;2024-03-08T08:15:09;41.08;;;24.30;;
30970;SDS011;17651;52.262;10.498;2024-03-08T08:17:20;41.92;;;23.52;;
30970;SDS011;17651;52.262;10.498;2024-03-08T08:19:32;47.03;;;24.63;;
30970;SDS011;17651;52.262;10.498;2024-03-08T08:21:43;45.22;;;24.38;;
30970;SDS011;17651;52.262;10.498;2024-03-08T08:23:54;43.67;;;23.65;;
30970;SDS011;17651;52.262;10.498;2024-03-08T08:26:05;39.20;;;23.65;;
30970;SDS011;17651;52.262;10.498;2024-03-08T08:28:17;43.70;;;24.02;;
30970;SDS011;17651;52.262;10.498;2024-03-08T08:30:29;46.20;;;24.45;;
30970;SDS011;17651;52.262;10.498;2024-03-08T08:32:40;41.47;;;23.02;;
30970;SDS011;17651;52.262;10.498;2024-03-08T08:34:52;45.08;;;23.38;;
30970;SDS011;17651;52.262;10.498;2024-03-08T08:37:03;42.00;;;24.13;;
30970;SDS011;17651;52.262;10.498;2024-03-08T08:39:14;45.40;;;24.65;;
30970;SDS011;17651;52.262;10.498;2024-03-08T08:41:27;41.00;;;24.33;;
30970;SDS011;17651;52.262;10.498;2024-03-08T08:43:39;44.63;;;25.25;;
30970;SDS011;17651;52.262;10.498;2024-03-08T08:45:53;42.92;;;24.95;;
30970;SDS011;17651;52.262;10.498;2024-03-08T08:48:05;42.25;;;22.90;;
30970;SDS011;17651;52.262;10.498;2024-03-08T08:50:17;38.55;;;23.40;;
30970;SDS011;17651;52.262;10.498;2024-03-08T08:52:33;41.03;;;24.40;;
30970;SDS011;17651;52.262;10.498;2024-03-08T08:54:44;41.40;;;24.02;;
30970;SDS011;17651;52.262;10.498;2024-03-08T08:56:56;48.53;;;26.33;;
30970;SDS011;17651;52.262;10.498;2024-03-08T08:59:07;46.00;;;24.55;;
30970;SDS011;17651;52.262;10.498;2024-03-08T09:01:18;48.20;;;25.80;;
30970;SDS011;17651;52.262;10.498;2024-03-08T09:03:29;45.90;;;25.83;;
30970;SDS011;17651;52.262;10.498;2024-03-08T09:05:40;43.83;;;25.75;;
30970;SDS011;17651;52.262;10.498;2024-03-08T09:07:52;42.42;;;25.60;;
30970;SDS011;17651;52.262;10.498;2024-03-08T09:10:03;46.03;;;25.30;;
30970;SDS011;17651;52.262;10.498;2024-03-08T09:12:15;40.42;;;24.42;;
30970;SDS011;17651;52.262;10.498;2024-03-08T09:14:26;40.80;;;24.88;;
30970;SDS011;17651;52.262;10.498;2024-03-08T09:16:37;46.28;;;25.58;;
30970;SDS011;17651;52.262;10.498;2024-03-08T09:18:48;45.75;;;24.73;;
30970;SDS011;17651;52.262;10.498;2024-03-08T09:20:59;47.75;;;27.10;;
30970;SDS011;17651;52.262;10.498;2024-03-08T09:23:10;47.67;;;26.65;;
30970;SDS011;17651;52.262;10.498;2024-03-08T09:25:21;46.22;;;25.13;;
30970;SDS011;17651;52.262;10.498;2024-03-08T09:27:32;47.10;;;25.48;;
30970;SDS011;17651;52.262;10.498;2024-03-08T09:29:44;46.97;;;25.27;;
30970;SDS011;17651;52.262;10.498;2024-03-08T09:31:55;52.53;;;26.73;;
30970;SDS011;17651;52.262;10.498;2024-03-08T09:34:06;45.70;;;24.70;;
30970;SDS011;17651;52.262;10.498;2024-03-08T09:36:18;42.72;;;25.85;;
30970;SDS011;17651;52.262;10.498;2024-03-08T09:38:30;46.15;;;25.73;;
30970;SDS011;17651;52.262;10.498;2024-03-08T09:40:41;42.55;;;25.60;;
30970;SDS011;17651;52.262;10.498;2024-03-08T09:42:52;43.97;;;24.70;;
30970;SDS011;17651;52.262;10.498;2024-03-08T09:45:05;43.15;;;25.42;;
30970;SDS011;17651;52.262;10.498;2024-03-08T09:47:20;48.35;;;25.95;;
30970;SDS011;17651;52.262;10.498;2024-03-08T09:49:33;48.60;;;27.48;;
30970;SDS011;17651;52.262;10.498;2024-03-08T09:51:44;45.53;;;25.50;;
30970;SDS011;17651;52.262;10.498;2024-03-08T09:53:56;43.55;;;25.23;;
30970;SDS011;17651;52.262;10.498;2024-03-08T09:56:08;43.45;;;23.60;;
30970;SDS011;17651;52.262;10.498;2024-03-08T09:58:19;44.28;;;26.40;;
30970;SDS011;17651;52.262;10.498;2024-03-08T10:00:43;43.00;;;24.77;;
30970;SDS011;17651;52.262;10.498;2024-03-08T10:02:54;45.05;;;26.27;;
30970;SDS011;17651;52.262;10.498;2024-03-08T10:05:05;49.95;;;25.20;;
30970;SDS011;17651;52.262;10.498;2024-03-08T10:07:16;43.70;;;26.05;;
30970;SDS011;17651;52.262;10.498;2024-03-08T10:09:27;45.38;;;25.02;;
30970;SDS011;17651;52.262;10.498;2024-03-08T10:11:39;44.30;;;26.08;;
30970;SDS011;17651;52.262;10.498;2024-03-08T10:13:50;48.85;;;26.63;;
30970;SDS011;17651;52.262;10.498;2024-03-08T10:16:01;48.03;;;26.35;;
30970;SDS011;17651;52.262;10.498;2024-03-08T10:18:13;48.75;;;27.67;;
30970;SDS011;17651;52.262;10.498;2024-03-08T10:20:24;48.75;;;27.05;;
30970;SDS011;17651;52.262;10.498;2024-03-08T10:22:36;49.70;;;26.80;;
30970;SDS011;17651;52.262;10.498;2024-03-08T10:24:47;46.60;;;27.92;;
30970;SDS011;17651;52.262;10.498;2024-03-08T10:27:02;51.25;;;28.73;;
30970;SDS011;17651;52.262;10.498;2024-03-08T10:29:14;55.58;;;29.85;;
30970;SDS011;17651;52.262;10.498;2024-03-08T10:31:27;49.72;;;28.45;;
30970;SDS011;17651;52.262;10.498;2024-03-08T10:33:39;54.78;;;28.45;;
30970;SDS011;17651;52.262;10.498;2024-03-08T10:35:50;45.75;;;27.73;;
30970;SDS011;17651;52.262;10.498;2024-03-08T10:38:01;42.38;;;26.13;;
30970;SDS011;17651;52.262;10.498;2024-03-08T10:40:17;49.55;;;27.92;;
30970;SDS011;17651;52.262;10.498;2024-03-08T10:42:29;45.78;;;26.23;;
30970;SDS011;17651;52.262;10.498;2024-03-08T10:44:49;50.50;;;26.25;;
30970;SDS011;17651;52.262;10.498;2024-03-08T10:47:14;45.22;;;24.23;;
30970;SDS011;17651;52.262;10.498;2024-03-08T10:49:37;44.00;;;25.70;;
30970;SDS011;17651;52.262;10.498;2024-03-08T10:51:49;46.33;;;24.63;;
30970;SDS011;17651;52.262;10.498;2024-03-08T10:54:02;45.03;;;25.92;;
30970;SDS011;17651;52.262;10.498;2024-03-08T10:56:14;44.33;;;25.40;;
30970;SDS011;17651;52.262;10.498;2024-03-08T10:58:25;45.28;;;26.33;;
30970;SDS011;17651;52.262;10.498;2024-03-08T11:00:37;46.03;;;25.35;;
30970;SDS011;17651;52.262;10.498;2024-03-08T11:02:48;44.28;;;24.30;;
30970;SDS011;17651;52.262;10.498;2024-03-08T11:04:59;46.33;;;24.85;;
30970;SDS011;17651;52.262;10.498;2024-03-08T11:07:14;44.08;;;24.30;;
30970;SDS011;17651;52.262;10.498;2024-03-08T11:09:28;41.10;;;24.40;;
30970;SDS011;17651;52.262;10.498;2024-03-08T11:11:39;50.17;;;24.30;;
30970;SDS011;17651;52.262;10.498;2024-03-08T11:13:53;42.15;;;24.77;;
30970;SDS011;17651;52.262;10.498;2024-03-08T11:16:09;44.45;;;24.55;;
30970;SDS011;17651;52.262;10.498;2024-03-08T11:18:20;48.42;;;25.67;;
30970;SDS011;17651;52.262;10.498;2024-03-08T11:20:31;40.70;;;24.25;;
30970;SDS011;17651;52.262;10.498;2024-03-08T11:22:57;39.97;;;23.30;;
30970;SDS011;17651;52.262;10.498;2024-03-08T11:25:29;42.05;;;23.90;;
30970;SDS011;17651;52.262;10.498;2024-03-08T11:29:59;44.38;;;23.48;;
30970;SDS011;17651;52.262;10.498;2024-03-08T11:32:12;44.60;;;24.80;;
30970;SDS011;17651;52.262;10.498;2024-03-08T11:34:23;41.28;;;23.40;;
30970;SDS011;17651;52.262;10.498;2024-03-08T11:36:34;41.88;;;24.10;;
30970;SDS011;17651;52.262;10.498;2024-03-08T11:38:47;41.03;;;23.40;;
30970;SDS011;17651;52.262;10.498;2024-03-08T11:40:59;41.58;;;23.27;;
30970;SDS011;17651;52.262;10.498;2024-03-08T11:43:10;41.25;;;23.17;;
30970;SDS011;17651;52.262;10.498;2024-03-08T11:45:21;38.35;;;22.55;;
30970;SDS011;17651;52.262;10.498;2024-03-08T11:47:32;41.35;;;22.50;;
30970;SDS011;17651;52.262;10.498;2024-03-08T11:49:43;35.95;;;21.10;;
30970;SDS011;17651;52.262;10.498;2024-03-08T11:51:54;39.00;;;22.67;;
30970;SDS011;17651;52.262;10.498;2024-03-08T11:54:10;38.30;;;22.33;;
30970;SDS011;17651;52.262;10.498;2024-03-08T11:56:21;37.47;;;21.40;;
30970;SDS011;17651;52.262;10.498;2024-03-08T11:58:32;34.22;;;19.33;;
30970;SDS011;17651;52.262;10.498;2024-03-08T12:00:43;35.65;;;20.02;;
30970;SDS011;17651;52.262;10.498;2024-03-08T12:03:03;30.52;;;20.15;;
30970;SDS011;17651;52.262;10.498;2024-03-08T12:05:14;31.33;;;19.55;;
30970;SDS011;17651;52.262;10.498;2024-03-08T12:07:26;34.95;;;20.40;;
30970;SDS011;17651;52.262;10.498;2024-03-08T12:09:42;32.55;;;18.73;;
30970;SDS011;17651;52.262;10.498;2024-03-08T12:11:58;36.22;;;19.60;;
30970;SDS011;17651;52.262;10.498;2024-03-08T12:14:09;30.38;;;18.75;;
30970;SDS011;17651;52.262;10.498;2024-03-08T12:16:20;35.80;;;20.17;;
30970;SDS011;17651;52.262;10.498;2024-03-08T12:18:37;32.15;;;20.08;;
30970;SDS011;17651;52.262;10.498;2024-03-08T12:20:48;33.53;;;19.70;;
30970;SDS011;17651;52.262;10.498;2024-03-08T12:23:00;33.03;;;18.80;;
30970;SDS011;17651;52.262;10.498;2024-03-08T12:25:11;32.00;;;18.67;;
30970;SDS011;17651;52.262;10.498;2024-03-08T12:27:22;33.22;;;18.23;;
30970;SDS011;17651;52.262;10.498;2024-03-08T12:29:34;32.33;;;18.35;;
30970;SDS011;17651;52.262;10.498;2024-03-08T12:31:45;28.20;;;18.13;;
30970;SDS011;17651;52.262;10.498;2024-03-08T12:33:56;31.27;;;18.80;;
30970;SDS011;17651;52.262;10.498;2024-03-08T12:36:10;31.50;;;17.45;;
30970;SDS011;17651;52.262;10.498;2024-03-08T12:38:27;27.63;;;16.92;;
30970;SDS011;17651;52.262;10.498;2024-03-08T12:40:38;29.30;;;17.77;;
30970;SDS011;17651;52.262;10.498;2024-03-08T12:42:52;32.13;;;17.95;;